Terminal Aerodrome Forecast
Issued by NWS

Home | Current Version | Previous Version | Text Only | Print | Product List | Glossary On
Versions: 1 2 3 4 5 6 7 8 9 10 11 12 13 14 15 16 17 18
287
FTUS46 KSEW 201728
TAFBFI
TAF
KBFI 201728Z 2018/2118 VRB03KT P6SM SCT015 BKN040 BKN070
      TEMPO 2018/2021 BKN015 OVC040
     FM202100 33006KT P6SM SCT020 BKN050
     FM210400 VRB04KT P6SM SCT050
     FM211000 16006KT P6SM BKN015=

USA.gov is the U.S. government's official web portal to all federal, state and local government web resources and services.